sensor_id;sensor_type;location;lat;lon;timestamp;P1;durP1;ratioP1;P2;durP2;ratioP2
63193;SDS011;49289;51.670;5.624;2023-04-10T00:01:10;8.90;;;6.50;;
63193;SDS011;49289;51.670;5.624;2023-04-10T00:02:59;8.20;;;6.20;;
63193;SDS011;49289;51.670;5.624;2023-04-10T00:04:47;8.40;;;6.40;;
63193;SDS011;49289;51.670;5.624;2023-04-10T00:06:35;8.30;;;6.20;;
63193;SDS011;49289;51.670;5.624;2023-04-10T00:08:23;9.60;;;6.50;;
63193;SDS011;49289;51.670;5.624;2023-04-10T00:10:11;9.30;;;6.40;;
63193;SDS011;49289;51.670;5.624;2023-04-10T00:11:58;9.90;;;6.60;;
63193;SDS011;49289;51.670;5.624;2023-04-10T00:13:46;8.60;;;6.50;;
63193;SDS011;49289;51.670;5.624;2023-04-10T00:15:34;10.60;;;6.60;;
63193;SDS011;49289;51.670;5.624;2023-04-10T00:17:23;8.90;;;6.40;;
63193;SDS011;49289;51.670;5.624;2023-04-10T00:19:11;9.20;;;6.50;;
63193;SDS011;49289;51.670;5.624;2023-04-10T00:20:59;9.20;;;6.50;;
63193;SDS011;49289;51.670;5.624;2023-04-10T00:22:47;8.60;;;6.10;;
63193;SDS011;49289;51.670;5.624;2023-04-10T00:24:34;8.80;;;6.60;;
63193;SDS011;49289;51.670;5.624;2023-04-10T00:26:21;8.30;;;6.40;;
63193;SDS011;49289;51.670;5.624;2023-04-10T00:28:08;8.70;;;6.10;;
63193;SDS011;49289;51.670;5.624;2023-04-10T00:29:56;9.10;;;6.10;;
63193;SDS011;49289;51.670;5.624;2023-04-10T00:31:44;9.80;;;6.30;;
63193;SDS011;49289;51.670;5.624;2023-04-10T00:33:32;8.30;;;6.10;;
63193;SDS011;49289;51.670;5.624;2023-04-10T00:35:20;9.00;;;6.70;;
63193;SDS011;49289;51.670;5.624;2023-04-10T00:37:08;9.30;;;6.50;;
63193;SDS011;49289;51.670;5.624;2023-04-10T00:38:57;8.90;;;6.40;;
63193;SDS011;49289;51.670;5.624;2023-04-10T00:40:45;9.20;;;6.60;;
63193;SDS011;49289;51.670;5.624;2023-04-10T00:42:34;9.20;;;6.40;;
63193;SDS011;49289;51.670;5.624;2023-04-10T00:44:22;8.60;;;6.60;;
63193;SDS011;49289;51.670;5.624;2023-04-10T00:46:09;8.20;;;6.20;;
63193;SDS011;49289;51.670;5.624;2023-04-10T00:47:56;9.00;;;6.20;;
63193;SDS011;49289;51.670;5.624;2023-04-10T00:49:43;9.30;;;6.70;;
63193;SDS011;49289;51.670;5.624;2023-04-10T00:51:30;9.70;;;6.90;;
63193;SDS011;49289;51.670;5.624;2023-04-10T00:53:17;8.40;;;6.40;;
63193;SDS011;49289;51.670;5.624;2023-04-10T00:55:04;9.70;;;6.60;;
63193;SDS011;49289;51.670;5.624;2023-04-10T00:56:53;8.10;;;6.10;;
63193;SDS011;49289;51.670;5.624;2023-04-10T00:58:41;7.80;;;5.90;;
63193;SDS011;49289;51.670;5.624;2023-04-10T01:00:29;9.20;;;6.20;;
63193;SDS011;49289;51.670;5.624;2023-04-10T01:02:17;8.70;;;6.30;;
63193;SDS011;49289;51.670;5.624;2023-04-10T01:04:05;7.70;;;6.10;;
63193;SDS011;49289;51.670;5.624;2023-04-10T01:05:55;8.50;;;5.90;;
63193;SDS011;49289;51.670;5.624;2023-04-10T01:07:45;10.40;;;6.70;;
63193;SDS011;49289;51.670;5.624;2023-04-10T01:09:40;9.60;;;6.60;;
63193;SDS011;49289;51.670;5.624;2023-04-10T01:11:29;9.50;;;6.60;;
63193;SDS011;49289;51.670;5.624;2023-04-10T01:13:20;10.00;;;6.60;;
63193;SDS011;49289;51.670;5.624;2023-04-10T01:15:07;11.10;;;6.80;;
63193;SDS011;49289;51.670;5.624;2023-04-10T01:16:56;9.40;;;6.50;;
63193;SDS011;49289;51.670;5.624;2023-04-10T01:18:45;10.50;;;6.90;;
63193;SDS011;49289;51.670;5.624;2023-04-10T01:20:32;10.50;;;6.50;;
63193;SDS011;49289;51.670;5.624;2023-04-10T01:22:20;11.30;;;6.80;;
63193;SDS011;49289;51.670;5.624;2023-04-10T01:24:23;8.40;;;6.30;;
63193;SDS011;49289;51.670;5.624;2023-04-10T01:26:13;9.50;;;6.60;;
63193;SDS011;49289;51.670;5.624;2023-04-10T01:28:04;10.10;;;6.70;;
63193;SDS011;49289;51.670;5.624;2023-04-10T01:29:54;9.90;;;6.50;;
63193;SDS011;49289;51.670;5.624;2023-04-10T01:31:41;7.90;;;6.50;;
63193;SDS011;49289;51.670;5.624;2023-04-10T01:33:29;8.70;;;6.60;;
63193;SDS011;49289;51.670;5.624;2023-04-10T01:35:15;11.00;;;6.90;;
63193;SDS011;49289;51.670;5.624;2023-04-10T01:37:03;9.70;;;6.80;;
63193;SDS011;49289;51.670;5.624;2023-04-10T01:38:50;9.30;;;6.70;;
63193;SDS011;49289;51.670;5.624;2023-04-10T01:40:38;9.60;;;6.80;;
63193;SDS011;49289;51.670;5.624;2023-04-10T01:42:27;8.70;;;6.50;;
63193;SDS011;49289;51.670;5.624;2023-04-10T01:44:15;9.80;;;6.50;;
63193;SDS011;49289;51.670;5.624;2023-04-10T01:46:03;9.40;;;6.60;;
63193;SDS011;49289;51.670;5.624;2023-04-10T01:47:50;9.70;;;7.00;;
63193;SDS011;49289;51.670;5.624;2023-04-10T01:49:37;9.50;;;6.70;;
63193;SDS011;49289;51.670;5.624;2023-04-10T01:51:24;8.70;;;6.40;;
63193;SDS011;49289;51.670;5.624;2023-04-10T01:53:12;9.70;;;7.00;;
63193;SDS011;49289;51.670;5.624;2023-04-10T01:54:59;10.70;;;6.80;;
63193;SDS011;49289;51.670;5.624;2023-04-10T01:57:44;9.50;;;6.80;;
63193;SDS011;49289;51.670;5.624;2023-04-10T01:59:32;9.40;;;7.00;;
63193;SDS011;49289;51.670;5.624;2023-04-10T02:01:23;9.10;;;6.70;;
63193;SDS011;49289;51.670;5.624;2023-04-10T02:03:10;9.00;;;6.60;;
63193;SDS011;49289;51.670;5.624;2023-04-10T02:04:58;9.00;;;6.50;;
63193;SDS011;49289;51.670;5.624;2023-04-10T02:06:47;10.10;;;7.20;;
63193;SDS011;49289;51.670;5.624;2023-04-10T02:08:33;9.30;;;6.70;;
63193;SDS011;49289;51.670;5.624;2023-04-10T02:10:23;9.10;;;6.80;;
63193;SDS011;49289;51.670;5.624;2023-04-10T02:12:11;10.30;;;6.90;;
63193;SDS011;49289;51.670;5.624;2023-04-10T02:13:57;8.90;;;6.80;;
63193;SDS011;49289;51.670;5.624;2023-04-10T02:15:46;9.00;;;6.90;;
63193;SDS011;49289;51.670;5.624;2023-04-10T02:17:33;9.60;;;6.80;;
63193;SDS011;49289;51.670;5.624;2023-04-10T02:19:20;10.20;;;7.30;;
63193;SDS011;49289;51.670;5.624;2023-04-10T02:21:07;10.50;;;7.10;;
63193;SDS011;49289;51.670;5.624;2023-04-10T02:22:54;10.70;;;7.50;;
63193;SDS011;49289;51.670;5.624;2023-04-10T02:24:41;9.90;;;7.30;;
63193;SDS011;49289;51.670;5.624;2023-04-10T02:26:29;9.30;;;7.10;;
63193;SDS011;49289;51.670;5.624;2023-04-10T02:28:21;10.00;;;7.30;;
63193;SDS011;49289;51.670;5.624;2023-04-10T02:30:09;9.80;;;6.90;;
63193;SDS011;49289;51.670;5.624;2023-04-10T02:31:57;10.50;;;7.20;;
63193;SDS011;49289;51.670;5.624;2023-04-10T02:33:45;10.90;;;7.50;;
63193;SDS011;49289;51.670;5.624;2023-04-10T02:35:33;10.00;;;6.90;;
63193;SDS011;49289;51.670;5.624;2023-04-10T02:37:21;8.80;;;6.60;;
63193;SDS011;49289;51.670;5.624;2023-04-10T02:39:09;9.70;;;6.70;;
63193;SDS011;49289;51.670;5.624;2023-04-10T02:40:57;9.30;;;7.00;;
63193;SDS011;49289;51.670;5.624;2023-04-10T02:42:45;10.40;;;7.00;;
63193;SDS011;49289;51.670;5.624;2023-04-10T02:44:33;8.60;;;6.60;;
63193;SDS011;49289;51.670;5.624;2023-04-10T02:46:22;10.20;;;6.60;;
63193;SDS011;49289;51.670;5.624;2023-04-10T02:48:10;10.00;;;7.10;;
63193;SDS011;49289;51.670;5.624;2023-04-10T02:49:57;9.40;;;7.00;;
63193;SDS011;49289;51.670;5.624;2023-04-10T02:51:44;8.40;;;6.40;;
63193;SDS011;49289;51.670;5.624;2023-04-10T02:53:32;9.60;;;6.80;;
63193;SDS011;49289;51.670;5.624;2023-04-10T02:55:18;8.00;;;6.50;;
63193;SDS011;49289;51.670;5.624;2023-04-10T02:57:05;10.00;;;6.90;;
63193;SDS011;49289;51.670;5.624;2023-04-10T02:58:52;9.10;;;6.00;;
63193;SDS011;49289;51.670;5.624;2023-04-10T03:00:39;10.00;;;7.20;;
63193;SDS011;49289;51.670;5.624;2023-04-10T03:02:26;11.30;;;7.40;;
63193;SDS011;49289;51.670;5.624;2023-04-10T03:04:13;10.00;;;6.70;;
63193;SDS011;49289;51.670;5.624;2023-04-10T03:06:00;10.10;;;7.10;;
63193;SDS011;49289;51.670;5.624;2023-04-10T03:07:47;9.30;;;6.80;;
63193;SDS011;49289;51.670;5.624;2023-04-10T03:09:34;10.20;;;7.40;;
63193;SDS011;49289;51.670;5.624;2023-04-10T03:11:21;9.30;;;6.30;;
63193;SDS011;49289;51.670;5.624;2023-04-10T03:13:09;9.10;;;6.70;;
63193;SDS011;49289;51.670;5.624;2023-04-10T03:14:56;10.60;;;7.00;;
63193;SDS011;49289;51.670;5.624;2023-04-10T03:16:43;9.00;;;7.00;;
63193;SDS011;49289;51.670;5.624;2023-04-10T03:18:30;9.20;;;6.80;;
63193;SDS011;49289;51.670;5.624;2023-04-10T03:20:18;9.20;;;6.60;;
63193;SDS011;49289;51.670;5.624;2023-04-10T03:22:06;9.90;;;6.80;;
63193;SDS011;49289;51.670;5.624;2023-04-10T03:23:54;9.50;;;7.00;;
63193;SDS011;49289;51.670;5.624;2023-04-10T03:25:42;9.70;;;6.40;;
63193;SDS011;49289;51.670;5.624;2023-04-10T03:27:30;9.30;;;6.70;;
63193;SDS011;49289;51.670;5.624;2023-04-10T03:29:18;8.60;;;6.20;;
63193;SDS011;49289;51.670;5.624;2023-04-10T03:31:06;8.90;;;6.60;;
63193;SDS011;49289;51.670;5.624;2023-04-10T03:32:53;8.30;;;6.50;;
63193;SDS011;49289;51.670;5.624;2023-04-10T03:34:41;8.10;;;6.30;;
63193;SDS011;49289;51.670;5.624;2023-04-10T03:36:29;9.00;;;6.60;;
63193;SDS011;49289;51.670;5.624;2023-04-10T03:38:18;8.90;;;6.40;;
63193;SDS011;49289;51.670;5.624;2023-04-10T03:40:06;10.40;;;6.60;;
63193;SDS011;49289;51.670;5.624;2023-04-10T03:41:53;8.70;;;6.50;;
63193;SDS011;49289;51.670;5.624;2023-04-10T03:43:40;8.60;;;6.50;;
63193;SDS011;49289;51.670;5.624;2023-04-10T03:45:27;9.00;;;6.30;;
63193;SDS011;49289;51.670;5.624;2023-04-10T03:47:14;10.30;;;6.70;;
63193;SDS011;49289;51.670;5.624;2023-04-10T03:49:01;9.80;;;7.00;;
63193;SDS011;49289;51.670;5.624;2023-04-10T03:50:48;8.90;;;6.10;;
63193;SDS011;49289;51.670;5.624;2023-04-10T03:52:35;9.40;;;6.90;;
63193;SDS011;49289;51.670;5.624;2023-04-10T03:54:22;9.30;;;7.10;;
63193;SDS011;49289;51.670;5.624;2023-04-10T03:56:11;9.60;;;7.00;;
63193;SDS011;49289;51.670;5.624;2023-04-10T03:57:58;11.00;;;7.10;;
63193;SDS011;49289;51.670;5.624;2023-04-10T03:59:45;9.80;;;6.90;;
63193;SDS011;49289;51.670;5.624;2023-04-10T04:01:32;9.20;;;6.80;;
63193;SDS011;49289;51.670;5.624;2023-04-10T04:03:19;10.00;;;7.30;;
63193;SDS011;49289;51.670;5.624;2023-04-10T04:05:06;9.40;;;6.90;;
63193;SDS011;49289;51.670;5.624;2023-04-10T04:06:54;9.00;;;6.70;;
63193;SDS011;49289;51.670;5.624;2023-04-10T04:08:43;12.50;;;7.40;;
63193;SDS011;49289;51.670;5.624;2023-04-10T04:10:31;9.20;;;7.20;;
63193;SDS011;49289;51.670;5.624;2023-04-10T04:12:19;8.80;;;7.00;;
63193;SDS011;49289;51.670;5.624;2023-04-10T04:14:07;10.10;;;7.10;;
63193;SDS011;49289;51.670;5.624;2023-04-10T04:15:55;10.70;;;6.80;;
63193;SDS011;49289;51.670;5.624;2023-04-10T04:17:43;10.20;;;6.80;;
63193;SDS011;49289;51.670;5.624;2023-04-10T04:19:31;9.60;;;6.50;;
63193;SDS011;49289;51.670;5.624;2023-04-10T04:22:07;8.80;;;6.60;;
63193;SDS011;49289;51.670;5.624;2023-04-10T04:23:54;9.20;;;6.90;;
63193;SDS011;49289;51.670;5.624;2023-04-10T04:25:42;10.80;;;7.00;;
63193;SDS011;49289;51.670;5.624;2023-04-10T04:27:29;9.30;;;6.60;;
63193;SDS011;49289;51.670;5.624;2023-04-10T04:29:16;9.70;;;6.90;;
63193;SDS011;49289;51.670;5.624;2023-04-10T04:31:03;9.50;;;7.00;;
63193;SDS011;49289;51.670;5.624;2023-04-10T04:32:50;11.70;;;7.20;;
63193;SDS011;49289;51.670;5.624;2023-04-10T04:34:37;10.40;;;7.20;;
63193;SDS011;49289;51.670;5.624;2023-04-10T04:36:24;13.50;;;7.10;;
63193;SDS011;49289;51.670;5.624;2023-04-10T04:38:11;10.00;;;7.00;;
63193;SDS011;49289;51.670;5.624;2023-04-10T04:39:58;10.80;;;7.30;;
63193;SDS011;49289;51.670;5.624;2023-04-10T04:41:46;12.40;;;7.80;;
63193;SDS011;49289;51.670;5.624;2023-04-10T04:43:34;9.60;;;7.10;;
63193;SDS011;49289;51.670;5.624;2023-04-10T04:45:23;9.70;;;6.80;;
63193;SDS011;49289;51.670;5.624;2023-04-10T04:47:11;8.50;;;6.50;;
63193;SDS011;49289;51.670;5.624;2023-04-10T04:48:59;9.40;;;6.80;;
63193;SDS011;49289;51.670;5.624;2023-04-10T04:50:47;9.50;;;7.20;;
63193;SDS011;49289;51.670;5.624;2023-04-10T04:52:35;10.10;;;7.70;;
63193;SDS011;49289;51.670;5.624;2023-04-10T04:54:23;10.10;;;7.10;;
63193;SDS011;49289;51.670;5.624;2023-04-10T04:56:12;9.10;;;7.30;;
63193;SDS011;49289;51.670;5.624;2023-04-10T04:57:59;9.70;;;6.60;;
63193;SDS011;49289;51.670;5.624;2023-04-10T04:59:46;10.00;;;7.10;;
63193;SDS011;49289;51.670;5.624;2023-04-10T05:01:34;8.90;;;7.00;;
63193;SDS011;49289;51.670;5.624;2023-04-10T05:03:21;9.40;;;7.20;;
63193;SDS011;49289;51.670;5.624;2023-04-10T05:05:10;10.30;;;7.20;;
63193;SDS011;49289;51.670;5.624;2023-04-10T05:06:58;9.00;;;7.00;;
63193;SDS011;49289;51.670;5.624;2023-04-10T05:08:46;13.50;;;7.40;;
63193;SDS011;49289;51.670;5.624;2023-04-10T05:10:33;12.40;;;7.20;;
63193;SDS011;49289;51.670;5.624;2023-04-10T05:12:21;10.20;;;7.50;;
63193;SDS011;49289;51.670;5.624;2023-04-10T05:14:09;10.00;;;7.30;;
63193;SDS011;49289;51.670;5.624;2023-04-10T05:15:57;8.80;;;6.70;;
63193;SDS011;49289;51.670;5.624;2023-04-10T05:17:45;9.60;;;7.40;;
63193;SDS011;49289;51.670;5.624;2023-04-10T05:19:33;10.60;;;7.20;;
63193;SDS011;49289;51.670;5.624;2023-04-10T05:21:21;9.10;;;6.90;;
63193;SDS011;49289;51.670;5.624;2023-04-10T05:23:10;9.60;;;6.70;;
63193;SDS011;49289;51.670;5.624;2023-04-10T05:24:58;9.90;;;6.80;;
63193;SDS011;49289;51.670;5.624;2023-04-10T05:26:46;10.20;;;7.30;;
63193;SDS011;49289;51.670;5.624;2023-04-10T05:28:34;10.10;;;6.90;;
63193;SDS011;49289;51.670;5.624;2023-04-10T05:30:21;9.30;;;6.90;;
63193;SDS011;49289;51.670;5.624;2023-04-10T05:32:08;9.20;;;6.50;;
63193;SDS011;49289;51.670;5.624;2023-04-10T05:33:55;10.40;;;7.00;;
63193;SDS011;49289;51.670;5.624;2023-04-10T05:36:41;9.60;;;6.90;;
63193;SDS011;49289;51.670;5.624;2023-04-10T05:38:29;9.60;;;6.90;;
63193;SDS011;49289;51.670;5.624;2023-04-10T05:40:17;10.40;;;6.20;;
63193;SDS011;49289;51.670;5.624;2023-04-10T05:42:05;10.30;;;6.70;;
63193;SDS011;49289;51.670;5.624;2023-04-10T05:43:53;8.90;;;6.60;;
63193;SDS011;49289;51.670;5.624;2023-04-10T05:45:42;9.60;;;6.90;;
63193;SDS011;49289;51.670;5.624;2023-04-10T05:47:28;9.50;;;6.80;;
63193;SDS011;49289;51.670;5.624;2023-04-10T05:49:15;10.30;;;7.10;;
63193;SDS011;49289;51.670;5.624;2023-04-10T05:51:02;11.50;;;6.50;;
63193;SDS011;49289;51.670;5.624;2023-04-10T05:52:50;9.10;;;6.60;;
63193;SDS011;49289;51.670;5.624;2023-04-10T05:54:39;9.30;;;6.70;;
63193;SDS011;49289;51.670;5.624;2023-04-10T05:56:26;12.10;;;7.00;;
63193;SDS011;49289;51.670;5.624;2023-04-10T05:58:13;8.50;;;6.50;;
63193;SDS011;49289;51.670;5.624;2023-04-10T06:00:01;9.70;;;6.20;;
63193;SDS011;49289;51.670;5.624;2023-04-10T06:01:49;10.20;;;6.70;;
63193;SDS011;49289;51.670;5.624;2023-04-10T06:03:37;8.40;;;6.70;;
63193;SDS011;49289;51.670;5.624;2023-04-10T06:05:24;10.10;;;6.50;;
63193;SDS011;49289;51.670;5.624;2023-04-10T06:07:12;9.90;;;6.70;;
63193;SDS011;49289;51.670;5.624;2023-04-10T06:09:00;9.90;;;7.10;;
63193;SDS011;49289;51.670;5.624;2023-04-10T06:10:49;8.60;;;6.70;;
63193;SDS011;49289;51.670;5.624;2023-04-10T06:12:37;9.40;;;6.30;;
63193;SDS011;49289;51.670;5.624;2023-04-10T06:14:25;8.10;;;6.10;;
63193;SDS011;49289;51.670;5.624;2023-04-10T06:16:13;9.20;;;6.50;;
63193;SDS011;49289;51.670;5.624;2023-04-10T06:18:00;8.90;;;6.50;;
63193;SDS011;49289;51.670;5.624;2023-04-10T06:19:47;8.60;;;6.70;;
63193;SDS011;49289;51.670;5.624;2023-04-10T06:21:34;10.90;;;6.80;;
63193;SDS011;49289;51.670;5.624;2023-04-10T06:23:21;8.70;;;6.40;;
63193;SDS011;49289;51.670;5.624;2023-04-10T06:25:09;8.70;;;6.30;;
63193;SDS011;49289;51.670;5.624;2023-04-10T06:26:57;8.80;;;6.50;;
63193;SDS011;49289;51.670;5.624;2023-04-10T06:28:45;8.40;;;6.30;;
63193;SDS011;49289;51.670;5.624;2023-04-10T06:30:33;8.30;;;6.50;;
63193;SDS011;49289;51.670;5.624;2023-04-10T06:32:21;9.10;;;6.30;;
63193;SDS011;49289;51.670;5.624;2023-04-10T06:34:09;10.10;;;6.90;;
63193;SDS011;49289;51.670;5.624;2023-04-10T06:35:57;9.20;;;6.90;;
63193;SDS011;49289;51.670;5.624;2023-04-10T06:37:45;9.40;;;7.10;;
63193;SDS011;49289;51.670;5.624;2023-04-10T06:39:33;9.10;;;6.80;;
63193;SDS011;49289;51.670;5.624;2023-04-10T06:41:21;9.90;;;6.40;;
63193;SDS011;49289;51.670;5.624;2023-04-10T06:43:09;10.00;;;6.20;;
63193;SDS011;49289;51.670;5.624;2023-04-10T06:44:56;9.90;;;6.90;;
63193;SDS011;49289;51.670;5.624;2023-04-10T06:46:43;8.80;;;6.30;;
63193;SDS011;49289;51.670;5.624;2023-04-10T06:48:30;8.70;;;6.40;;
63193;SDS011;49289;51.670;5.624;2023-04-10T06:50:17;8.80;;;6.50;;
63193;SDS011;49289;51.670;5.624;2023-04-10T06:52:04;8.80;;;6.30;;
63193;SDS011;49289;51.670;5.624;2023-04-10T06:53:52;10.30;;;6.70;;
63193;SDS011;49289;51.670;5.624;2023-04-10T06:55:40;7.90;;;6.40;;
63193;SDS011;49289;51.670;5.624;2023-04-10T06:57:28;7.60;;;6.20;;
63193;SDS011;49289;51.670;5.624;2023-04-10T06:59:16;9.70;;;6.00;;
63193;SDS011;49289;51.670;5.624;2023-04-10T07:01:04;9.20;;;6.30;;
63193;SDS011;49289;51.670;5.624;2023-04-10T07:02:53;9.30;;;6.70;;
63193;SDS011;49289;51.670;5.624;2023-04-10T07:04:41;10.40;;;6.80;;
63193;SDS011;49289;51.670;5.624;2023-04-10T07:06:29;8.60;;;6.40;;
63193;SDS011;49289;51.670;5.624;2023-04-10T07:08:17;8.90;;;6.70;;
63193;SDS011;49289;51.670;5.624;2023-04-10T07:10:05;9.70;;;6.50;;
63193;SDS011;49289;51.670;5.624;2023-04-10T07:11:54;8.50;;;6.90;;
63193;SDS011;49289;51.670;5.624;2023-04-10T07:13:42;9.20;;;7.00;;
63193;SDS011;49289;51.670;5.624;2023-04-10T07:15:30;7.90;;;6.50;;
63193;SDS011;49289;51.670;5.624;2023-04-10T07:17:18;10.00;;;6.90;;
63193;SDS011;49289;51.670;5.624;2023-04-10T07:19:06;10.30;;;6.60;;
63193;SDS011;49289;51.670;5.624;2023-04-10T07:20:54;10.40;;;6.70;;
63193;SDS011;49289;51.670;5.624;2023-04-10T07:22:42;8.20;;;6.10;;
63193;SDS011;49289;51.670;5.624;2023-04-10T07:24:30;8.50;;;6.70;;
63193;SDS011;49289;51.670;5.624;2023-04-10T07:26:18;10.20;;;6.60;;
63193;SDS011;49289;51.670;5.624;2023-04-10T07:28:05;8.30;;;6.50;;
63193;SDS011;49289;51.670;5.624;2023-04-10T07:29:52;8.70;;;6.60;;
63193;SDS011;49289;51.670;5.624;2023-04-10T07:31:39;9.10;;;6.80;;
63193;SDS011;49289;51.670;5.624;2023-04-10T07:33:26;8.70;;;6.20;;
63193;SDS011;49289;51.670;5.624;2023-04-10T07:35:14;8.90;;;6.50;;
63193;SDS011;49289;51.670;5.624;2023-04-10T07:37:01;9.20;;;6.60;;
63193;SDS011;49289;51.670;5.624;2023-04-10T07:38:48;8.60;;;6.40;;
63193;SDS011;49289;51.670;5.624;2023-04-10T07:40:35;8.40;;;6.20;;
63193;SDS011;49289;51.670;5.624;2023-04-10T07:42:22;8.30;;;6.30;;
63193;SDS011;49289;51.670;5.624;2023-04-10T07:44:09;9.50;;;6.90;;
63193;SDS011;49289;51.670;5.624;2023-04-10T07:45:56;9.50;;;6.60;;
63193;SDS011;49289;51.670;5.624;2023-04-10T07:47:43;7.90;;;6.30;;
63193;SDS011;49289;51.670;5.624;2023-04-10T07:49:30;10.50;;;6.80;;
63193;SDS011;49289;51.670;5.624;2023-04-10T07:51:17;8.70;;;6.40;;
63193;SDS011;49289;51.670;5.624;2023-04-10T07:53:04;7.70;;;6.20;;
63193;SDS011;49289;51.670;5.624;2023-04-10T07:54:51;8.00;;;6.30;;
63193;SDS011;49289;51.670;5.624;2023-04-10T07:56:38;8.30;;;6.20;;
63193;SDS011;49289;51.670;5.624;2023-04-10T07:58:25;8.70;;;6.30;;
63193;SDS011;49289;51.670;5.624;2023-04-10T08:00:14;9.00;;;6.30;;
63193;SDS011;49289;51.670;5.624;2023-04-10T08:02:03;8.20;;;5.90;;
63193;SDS011;49289;51.670;5.624;2023-04-10T08:03:50;8.30;;;6.40;;
63193;SDS011;49289;51.670;5.624;2023-04-10T08:05:38;9.00;;;6.10;;
63193;SDS011;49289;51.670;5.624;2023-04-10T08:07:25;10.50;;;6.20;;
63193;SDS011;49289;51.670;5.624;2023-04-10T08:09:12;7.60;;;5.80;;
63193;SDS011;49289;51.670;5.624;2023-04-10T08:10:59;8.40;;;6.20;;
63193;SDS011;49289;51.670;5.624;2023-04-10T08:12:46;7.70;;;6.10;;
63193;SDS011;49289;51.670;5.624;2023-04-10T08:14:33;9.70;;;6.10;;
63193;SDS011;49289;51.670;5.624;2023-04-10T08:16:21;8.20;;;6.60;;
63193;SDS011;49289;51.670;5.624;2023-04-10T08:18:09;9.60;;;6.60;;
63193;SDS011;49289;51.670;5.624;2023-04-10T08:19:56;8.20;;;6.40;;
63193;SDS011;49289;51.670;5.624;2023-04-10T08:21:44;9.90;;;6.20;;
63193;SDS011;49289;51.670;5.624;2023-04-10T08:23:32;7.60;;;6.00;;
63193;SDS011;49289;51.670;5.624;2023-04-10T08:25:20;7.80;;;6.10;;
63193;SDS011;49289;51.670;5.624;2023-04-10T08:27:08;7.70;;;6.00;;
63193;SDS011;49289;51.670;5.624;2023-04-10T08:28:57;8.20;;;5.80;;
63193;SDS011;49289;51.670;5.624;2023-04-10T08:30:44;8.30;;;5.70;;
63193;SDS011;49289;51.670;5.624;2023-04-10T08:32:32;7.20;;;5.70;;
63193;SDS011;49289;51.670;5.624;2023-04-10T08:34:20;7.60;;;5.70;;
63193;SDS011;49289;51.670;5.624;2023-04-10T08:36:07;7.00;;;5.50;;
63193;SDS011;49289;51.670;5.624;2023-04-10T08:37:54;7.40;;;6.10;;
63193;SDS011;49289;51.670;5.624;2023-04-10T08:39:41;7.20;;;5.70;;
63193;SDS011;49289;51.670;5.624;2023-04-10T08:41:28;6.80;;;5.50;;
63193;SDS011;49289;51.670;5.624;2023-04-10T08:43:15;7.00;;;5.30;;
63193;SDS011;49289;51.670;5.624;2023-04-10T08:45:02;6.60;;;5.60;;
63193;SDS011;49289;51.670;5.624;2023-04-10T08:46:50;8.50;;;5.60;;
63193;SDS011;49289;51.670;5.624;2023-04-10T08:48:38;9.10;;;5.80;;
63193;SDS011;49289;51.670;5.624;2023-04-10T08:50:26;5.90;;;5.00;;
63193;SDS011;49289;51.670;5.624;2023-04-10T08:52:16;6.60;;;5.10;;
63193;SDS011;49289;51.670;5.624;2023-04-10T08:54:04;6.80;;;5.20;;
63193;SDS011;49289;51.670;5.624;2023-04-10T08:55:51;6.50;;;5.70;;
63193;SDS011;49289;51.670;5.624;2023-04-10T08:57:39;7.50;;;5.80;;
63193;SDS011;49289;51.670;5.624;2023-04-10T08:59:27;6.50;;;5.30;;
63193;SDS011;49289;51.670;5.624;2023-04-10T09:01:15;6.30;;;5.30;;
63193;SDS011;49289;51.670;5.624;2023-04-10T09:03:02;6.80;;;5.20;;
63193;SDS011;49289;51.670;5.624;2023-04-10T09:04:50;7.00;;;5.30;;
63193;SDS011;49289;51.670;5.624;2023-04-10T09:06:36;7.90;;;5.40;;
63193;SDS011;49289;51.670;5.624;2023-04-10T09:08:23;6.70;;;5.60;;
63193;SDS011;49289;51.670;5.624;2023-04-10T09:10:11;6.90;;;5.30;;
63193;SDS011;49289;51.670;5.624;2023-04-10T09:12:02;6.20;;;5.00;;
63193;SDS011;49289;51.670;5.624;2023-04-10T09:13:50;6.60;;;5.30;;
63193;SDS011;49289;51.670;5.624;2023-04-10T09:17:40;7.80;;;5.80;;
63193;SDS011;49289;51.670;5.624;2023-04-10T09:19:40;7.10;;;5.40;;
63193;SDS011;49289;51.670;5.624;2023-04-10T09:21:27;6.00;;;5.30;;
63193;SDS011;49289;51.670;5.624;2023-04-10T09:23:24;6.70;;;5.30;;
63193;SDS011;49289;51.670;5.624;2023-04-10T09:25:27;7.00;;;5.50;;
63193;SDS011;49289;51.670;5.624;2023-04-10T09:27:05;7.10;;;5.10;;
63193;SDS011;49289;51.670;5.624;2023-04-10T09:29:00;6.70;;;5.50;;
63193;SDS011;49289;51.670;5.624;2023-04-10T09:30:48;6.20;;;5.30;;
63193;SDS011;49289;51.670;5.624;2023-04-10T09:32:42;6.60;;;5.60;;
63193;SDS011;49289;51.670;5.624;2023-04-10T09:34:29;6.50;;;5.30;;
63193;SDS011;49289;51.670;5.624;2023-04-10T09:36:17;6.80;;;5.20;;
63193;SDS011;49289;51.670;5.624;2023-04-10T09:38:12;6.30;;;5.10;;
63193;SDS011;49289;51.670;5.624;2023-04-10T09:39:58;6.70;;;5.50;;
63193;SDS011;49289;51.670;5.624;2023-04-10T09:43:50;7.60;;;5.40;;
63193;SDS011;49289;51.670;5.624;2023-04-10T09:45:51;6.90;;;5.30;;
63193;SDS011;49289;51.670;5.624;2023-04-10T09:47:38;7.50;;;5.30;;
63193;SDS011;49289;51.670;5.624;2023-04-10T09:49:26;7.80;;;5.50;;
63193;SDS011;49289;51.670;5.624;2023-04-10T09:51:15;8.00;;;5.80;;
63193;SDS011;49289;51.670;5.624;2023-04-10T09:53:13;7.10;;;5.70;;
63193;SDS011;49289;51.670;5.624;2023-04-10T09:55:01;6.30;;;5.00;;
63193;SDS011;49289;51.670;5.624;2023-04-10T09:56:49;6.20;;;5.30;;
63193;SDS011;49289;51.670;5.624;2023-04-10T09:58:37;7.60;;;5.80;;
63193;SDS011;49289;51.670;5.624;2023-04-10T10:00:25;5.90;;;5.00;;
63193;SDS011;49289;51.670;5.624;2023-04-10T10:02:13;6.00;;;4.90;;
63193;SDS011;49289;51.670;5.624;2023-04-10T10:04:01;5.80;;;4.90;;
63193;SDS011;49289;51.670;5.624;2023-04-10T10:05:49;7.20;;;5.30;;
63193;SDS011;49289;51.670;5.624;2023-04-10T10:07:37;7.30;;;5.20;;
63193;SDS011;49289;51.670;5.624;2023-04-10T10:09:24;6.10;;;5.00;;
63193;SDS011;49289;51.670;5.624;2023-04-10T10:11:11;6.10;;;5.50;;
63193;SDS011;49289;51.670;5.624;2023-04-10T10:12:59;7.40;;;5.60;;
63193;SDS011;49289;51.670;5.624;2023-04-10T10:14:48;6.70;;;5.10;;
63193;SDS011;49289;51.670;5.624;2023-04-10T10:16:36;5.90;;;5.30;;
63193;SDS011;49289;51.670;5.624;2023-04-10T10:18:24;7.00;;;5.30;;
63193;SDS011;49289;51.670;5.624;2023-04-10T10:20:10;7.50;;;5.60;;
63193;SDS011;49289;51.670;5.624;2023-04-10T10:21:58;7.10;;;5.20;;
63193;SDS011;49289;51.670;5.624;2023-04-10T10:23:46;6.60;;;5.20;;
63193;SDS011;49289;51.670;5.624;2023-04-10T10:25:33;7.00;;;5.10;;
63193;SDS011;49289;51.670;5.624;2023-04-10T10:27:21;6.70;;;5.20;;
63193;SDS011;49289;51.670;5.624;2023-04-10T10:29:10;6.40;;;5.50;;
63193;SDS011;49289;51.670;5.624;2023-04-10T10:30:58;7.20;;;5.70;;
63193;SDS011;49289;51.670;5.624;2023-04-10T10:32:45;6.40;;;5.30;;
63193;SDS011;49289;51.670;5.624;2023-04-10T10:34:32;6.90;;;5.50;;
63193;SDS011;49289;51.670;5.624;2023-04-10T10:36:20;6.90;;;5.40;;
63193;SDS011;49289;51.670;5.624;2023-04-10T10:38:08;6.30;;;5.40;;
63193;SDS011;49289;51.670;5.624;2023-04-10T10:39:59;6.10;;;5.00;;
63193;SDS011;49289;51.670;5.624;2023-04-10T10:41:46;6.40;;;5.20;;
63193;SDS011;49289;51.670;5.624;2023-04-10T10:43:34;6.70;;;5.10;;
63193;SDS011;49289;51.670;5.624;2023-04-10T10:45:22;6.80;;;5.70;;
63193;SDS011;49289;51.670;5.624;2023-04-10T10:47:12;6.10;;;5.20;;
63193;SDS011;49289;51.670;5.624;2023-04-10T10:49:01;6.00;;;5.40;;
63193;SDS011;49289;51.670;5.624;2023-04-10T10:50:58;6.40;;;5.00;;
63193;SDS011;49289;51.670;5.624;2023-04-10T10:52:45;6.50;;;5.20;;
63193;SDS011;49289;51.670;5.624;2023-04-10T10:54:33;6.80;;;4.90;;
63193;SDS011;49289;51.670;5.624;2023-04-10T10:58:23;7.30;;;5.00;;